sensor_id;sensor_type;location;lat;lon;timestamp;P1;durP1;ratioP1;P2;durP2;ratioP2
64029;SDS011;50277;52.064;4.492;2023-05-10T00:00:30;21.73;;;17.48;;
64029;SDS011;50277;52.064;4.492;2023-05-10T00:02:56;21.55;;;17.95;;
64029;SDS011;50277;52.064;4.492;2023-05-10T00:05:21;24.25;;;18.70;;
64029;SDS011;50277;52.064;4.492;2023-05-10T00:07:46;21.38;;;18.50;;
64029;SDS011;50277;52.064;4.492;2023-05-10T00:10:12;22.77;;;18.27;;
64029;SDS011;50277;52.064;4.492;2023-05-10T00:12:37;20.23;;;16.80;;
64029;SDS011;50277;52.064;4.492;2023-05-10T00:15:03;22.55;;;17.77;;
64029;SDS011;50277;52.064;4.492;2023-05-10T00:17:29;26.67;;;17.30;;
64029;SDS011;50277;52.064;4.492;2023-05-10T00:19:54;21.80;;;17.50;;
64029;SDS011;50277;52.064;4.492;2023-05-10T00:22:20;19.27;;;17.23;;
64029;SDS011;50277;52.064;4.492;2023-05-10T00:24:45;26.45;;;19.50;;
64029;SDS011;50277;52.064;4.492;2023-05-10T00:27:11;27.88;;;20.15;;
64029;SDS011;50277;52.064;4.492;2023-05-10T00:29:36;27.63;;;20.30;;
64029;SDS011;50277;52.064;4.492;2023-05-10T00:32:01;28.23;;;21.35;;
64029;SDS011;50277;52.064;4.492;2023-05-10T00:34:27;35.38;;;21.75;;
64029;SDS011;50277;52.064;4.492;2023-05-10T00:36:52;24.85;;;20.10;;
64029;SDS011;50277;52.064;4.492;2023-05-10T00:39:17;27.55;;;19.75;;
64029;SDS011;50277;52.064;4.492;2023-05-10T00:41:43;26.77;;;19.88;;
64029;SDS011;50277;52.064;4.492;2023-05-10T00:44:08;24.20;;;19.63;;
64029;SDS011;50277;52.064;4.492;2023-05-10T00:46:34;31.45;;;22.77;;
64029;SDS011;50277;52.064;4.492;2023-05-10T00:48:59;30.67;;;22.60;;
64029;SDS011;50277;52.064;4.492;2023-05-10T00:51:25;30.25;;;23.00;;
64029;SDS011;50277;52.064;4.492;2023-05-10T00:53:51;32.10;;;24.63;;
64029;SDS011;50277;52.064;4.492;2023-05-10T00:56:16;38.53;;;25.35;;
64029;SDS011;50277;52.064;4.492;2023-05-10T00:58:42;39.42;;;27.25;;
64029;SDS011;50277;52.064;4.492;2023-05-10T01:01:08;40.08;;;27.92;;
64029;SDS011;50277;52.064;4.492;2023-05-10T01:03:34;50.65;;;31.85;;
64029;SDS011;50277;52.064;4.492;2023-05-10T01:06:00;43.47;;;28.73;;
64029;SDS011;50277;52.064;4.492;2023-05-10T01:08:25;50.88;;;30.42;;
64029;SDS011;50277;52.064;4.492;2023-05-10T01:10:51;52.55;;;30.63;;
64029;SDS011;50277;52.064;4.492;2023-05-10T01:13:18;46.05;;;28.58;;
64029;SDS011;50277;52.064;4.492;2023-05-10T01:15:52;49.83;;;29.45;;
64029;SDS011;50277;52.064;4.492;2023-05-10T01:18:17;50.65;;;29.25;;
64029;SDS011;50277;52.064;4.492;2023-05-10T01:20:45;52.42;;;28.45;;
64029;SDS011;50277;52.064;4.492;2023-05-10T01:31:21;82.97;;;31.40;;
64029;SDS011;50277;52.064;4.492;2023-05-10T01:33:55;64.53;;;30.30;;
64029;SDS011;50277;52.064;4.492;2023-05-10T01:36:27;68.55;;;29.67;;
64029;SDS011;50277;52.064;4.492;2023-05-10T01:39:32;72.22;;;31.38;;
64029;SDS011;50277;52.064;4.492;2023-05-10T01:42:07;63.80;;;29.02;;
64029;SDS011;50277;52.064;4.492;2023-05-10T01:44:37;69.35;;;30.63;;
64029;SDS011;50277;52.064;4.492;2023-05-10T01:47:06;64.90;;;29.20;;
64029;SDS011;50277;52.064;4.492;2023-05-10T01:49:36;68.80;;;30.17;;
64029;SDS011;50277;52.064;4.492;2023-05-10T01:52:09;63.00;;;28.10;;
64029;SDS011;50277;52.064;4.492;2023-05-10T01:54:37;57.25;;;27.00;;
64029;SDS011;50277;52.064;4.492;2023-05-10T01:57:05;65.30;;;29.33;;
64029;SDS011;50277;52.064;4.492;2023-05-10T01:59:33;63.70;;;29.85;;
64029;SDS011;50277;52.064;4.492;2023-05-10T02:02:05;62.42;;;28.65;;
64029;SDS011;50277;52.064;4.492;2023-05-10T02:04:31;70.47;;;30.67;;
64029;SDS011;50277;52.064;4.492;2023-05-10T02:06:56;61.92;;;28.45;;
64029;SDS011;50277;52.064;4.492;2023-05-10T02:09:22;55.47;;;26.20;;
64029;SDS011;50277;52.064;4.492;2023-05-10T02:11:49;56.88;;;26.15;;
64029;SDS011;50277;52.064;4.492;2023-05-10T02:14:15;61.20;;;28.95;;
64029;SDS011;50277;52.064;4.492;2023-05-10T02:16:40;59.72;;;27.23;;
64029;SDS011;50277;52.064;4.492;2023-05-10T02:19:06;65.05;;;30.48;;
64029;SDS011;50277;52.064;4.492;2023-05-10T02:21:33;60.78;;;30.42;;
64029;SDS011;50277;52.064;4.492;2023-05-10T02:23:59;62.50;;;29.52;;
64029;SDS011;50277;52.064;4.492;2023-05-10T02:26:26;71.85;;;30.88;;
64029;SDS011;50277;52.064;4.492;2023-05-10T02:28:52;57.85;;;29.45;;
64029;SDS011;50277;52.064;4.492;2023-05-10T02:31:18;66.32;;;30.00;;
64029;SDS011;50277;52.064;4.492;2023-05-10T02:33:44;57.63;;;28.88;;
64029;SDS011;50277;52.064;4.492;2023-05-10T02:36:09;53.05;;;26.67;;
64029;SDS011;50277;52.064;4.492;2023-05-10T02:38:35;60.58;;;27.38;;
64029;SDS011;50277;52.064;4.492;2023-05-10T02:41:01;54.45;;;27.05;;
64029;SDS011;50277;52.064;4.492;2023-05-10T02:43:27;48.72;;;27.90;;
64029;SDS011;50277;52.064;4.492;2023-05-10T02:45:55;51.05;;;28.63;;
64029;SDS011;50277;52.064;4.492;2023-05-10T02:48:20;54.72;;;30.00;;
64029;SDS011;50277;52.064;4.492;2023-05-10T02:50:46;56.00;;;28.52;;
64029;SDS011;50277;52.064;4.492;2023-05-10T02:53:18;43.65;;;26.30;;
64029;SDS011;50277;52.064;4.492;2023-05-10T02:55:46;43.25;;;24.42;;
64029;SDS011;50277;52.064;4.492;2023-05-10T02:58:15;40.88;;;23.38;;
64029;SDS011;50277;52.064;4.492;2023-05-10T03:00:40;42.20;;;25.90;;
64029;SDS011;50277;52.064;4.492;2023-05-10T03:03:05;38.83;;;24.15;;
64029;SDS011;50277;52.064;4.492;2023-05-10T03:05:31;32.72;;;22.33;;
64029;SDS011;50277;52.064;4.492;2023-05-10T03:07:58;43.83;;;26.65;;
64029;SDS011;50277;52.064;4.492;2023-05-10T03:10:26;43.53;;;25.70;;
64029;SDS011;50277;52.064;4.492;2023-05-10T03:15:58;44.33;;;27.17;;
64029;SDS011;50277;52.064;4.492;2023-05-10T03:18:43;41.30;;;26.58;;
64029;SDS011;50277;52.064;4.492;2023-05-10T03:21:10;42.92;;;28.23;;
64029;SDS011;50277;52.064;4.492;2023-05-10T03:23:46;45.20;;;29.27;;
64029;SDS011;50277;52.064;4.492;2023-05-10T03:26:17;43.33;;;27.98;;
64029;SDS011;50277;52.064;4.492;2023-05-10T03:28:45;41.17;;;27.67;;
64029;SDS011;50277;52.064;4.492;2023-05-10T03:31:11;50.08;;;28.70;;
64029;SDS011;50277;52.064;4.492;2023-05-10T03:33:45;38.38;;;26.98;;
64029;SDS011;50277;52.064;4.492;2023-05-10T03:36:13;42.38;;;27.45;;
64029;SDS011;50277;52.064;4.492;2023-05-10T03:38:39;39.17;;;26.17;;
64029;SDS011;50277;52.064;4.492;2023-05-10T03:41:04;41.75;;;26.20;;
64029;SDS011;50277;52.064;4.492;2023-05-10T03:43:30;33.90;;;23.88;;
64029;SDS011;50277;52.064;4.492;2023-05-10T03:45:55;31.23;;;21.52;;
64029;SDS011;50277;52.064;4.492;2023-05-10T03:48:20;25.40;;;21.00;;
64029;SDS011;50277;52.064;4.492;2023-05-10T03:50:45;28.02;;;22.60;;
64029;SDS011;50277;52.064;4.492;2023-05-10T03:53:11;33.03;;;23.33;;
64029;SDS011;50277;52.064;4.492;2023-05-10T03:55:37;31.00;;;22.30;;
64029;SDS011;50277;52.064;4.492;2023-05-10T03:58:02;35.22;;;24.83;;
64029;SDS011;50277;52.064;4.492;2023-05-10T04:00:27;34.08;;;23.83;;
64029;SDS011;50277;52.064;4.492;2023-05-10T04:02:53;34.42;;;23.90;;
64029;SDS011;50277;52.064;4.492;2023-05-10T04:05:18;32.08;;;24.52;;
64029;SDS011;50277;52.064;4.492;2023-05-10T04:07:43;35.15;;;27.02;;
64029;SDS011;50277;52.064;4.492;2023-05-10T04:10:09;35.88;;;26.90;;
64029;SDS011;50277;52.064;4.492;2023-05-10T04:12:35;46.83;;;32.65;;
64029;SDS011;50277;52.064;4.492;2023-05-10T04:15:00;45.65;;;33.15;;
64029;SDS011;50277;52.064;4.492;2023-05-10T04:17:26;41.65;;;29.55;;
64029;SDS011;50277;52.064;4.492;2023-05-10T04:19:51;38.42;;;29.00;;
64029;SDS011;50277;52.064;4.492;2023-05-10T04:22:19;42.75;;;29.77;;
64029;SDS011;50277;52.064;4.492;2023-05-10T04:24:45;34.22;;;27.33;;
64029;SDS011;50277;52.064;4.492;2023-05-10T04:27:10;39.33;;;26.58;;
64029;SDS011;50277;52.064;4.492;2023-05-10T04:29:36;33.85;;;24.45;;
64029;SDS011;50277;52.064;4.492;2023-05-10T04:32:01;38.63;;;27.00;;
64029;SDS011;50277;52.064;4.492;2023-05-10T04:34:28;37.35;;;23.85;;
64029;SDS011;50277;52.064;4.492;2023-05-10T04:36:54;42.95;;;25.23;;
64029;SDS011;50277;52.064;4.492;2023-05-10T04:39:19;40.67;;;24.45;;
64029;SDS011;50277;52.064;4.492;2023-05-10T04:41:45;44.55;;;22.80;;
64029;SDS011;50277;52.064;4.492;2023-05-10T04:44:10;46.40;;;23.55;;
64029;SDS011;50277;52.064;4.492;2023-05-10T04:46:35;45.22;;;23.77;;
64029;SDS011;50277;52.064;4.492;2023-05-10T04:49:01;41.53;;;22.85;;
64029;SDS011;50277;52.064;4.492;2023-05-10T04:51:26;37.20;;;21.48;;
64029;SDS011;50277;52.064;4.492;2023-05-10T04:53:51;42.15;;;22.70;;
64029;SDS011;50277;52.064;4.492;2023-05-10T04:56:17;40.15;;;22.52;;
64029;SDS011;50277;52.064;4.492;2023-05-10T04:58:43;37.38;;;22.70;;
64029;SDS011;50277;52.064;4.492;2023-05-10T05:01:08;35.65;;;21.65;;
64029;SDS011;50277;52.064;4.492;2023-05-10T05:03:35;31.23;;;20.83;;
64029;SDS011;50277;52.064;4.492;2023-05-10T05:06:01;29.83;;;19.33;;
64029;SDS011;50277;52.064;4.492;2023-05-10T05:08:26;33.95;;;19.25;;
64029;SDS011;50277;52.064;4.492;2023-05-10T05:10:52;28.52;;;18.15;;
64029;SDS011;50277;52.064;4.492;2023-05-10T05:13:17;31.05;;;17.77;;
64029;SDS011;50277;52.064;4.492;2023-05-10T05:15:43;30.40;;;16.38;;
64029;SDS011;50277;52.064;4.492;2023-05-10T05:18:08;24.33;;;15.30;;
64029;SDS011;50277;52.064;4.492;2023-05-10T05:20:33;28.23;;;15.02;;
64029;SDS011;50277;52.064;4.492;2023-05-10T05:22:59;25.30;;;13.63;;
64029;SDS011;50277;52.064;4.492;2023-05-10T05:25:24;24.00;;;13.52;;
64029;SDS011;50277;52.064;4.492;2023-05-10T05:27:50;20.45;;;11.77;;
64029;SDS011;50277;52.064;4.492;2023-05-10T05:30:15;22.77;;;12.15;;
64029;SDS011;50277;52.064;4.492;2023-05-10T05:32:40;19.65;;;11.35;;
64029;SDS011;50277;52.064;4.492;2023-05-10T05:35:06;17.98;;;11.05;;
64029;SDS011;50277;52.064;4.492;2023-05-10T05:37:31;17.90;;;10.52;;
64029;SDS011;50277;52.064;4.492;2023-05-10T05:39:57;21.55;;;12.18;;
64029;SDS011;50277;52.064;4.492;2023-05-10T05:42:22;17.92;;;10.52;;
64029;SDS011;50277;52.064;4.492;2023-05-10T05:44:48;22.70;;;12.07;;
64029;SDS011;50277;52.064;4.492;2023-05-10T05:47:13;16.33;;;10.40;;
64029;SDS011;50277;52.064;4.492;2023-05-10T05:49:38;19.83;;;11.10;;
64029;SDS011;50277;52.064;4.492;2023-05-10T05:52:04;18.75;;;9.93;;
64029;SDS011;50277;52.064;4.492;2023-05-10T05:54:30;17.10;;;10.02;;
64029;SDS011;50277;52.064;4.492;2023-05-10T05:56:59;15.27;;;10.13;;
64029;SDS011;50277;52.064;4.492;2023-05-10T05:59:25;16.63;;;11.05;;
64029;SDS011;50277;52.064;4.492;2023-05-10T06:01:50;17.50;;;10.48;;
64029;SDS011;50277;52.064;4.492;2023-05-10T06:04:16;17.73;;;11.23;;
64029;SDS011;50277;52.064;4.492;2023-05-10T06:06:41;17.23;;;9.60;;
64029;SDS011;50277;52.064;4.492;2023-05-10T06:09:07;14.30;;;9.65;;
64029;SDS011;50277;52.064;4.492;2023-05-10T06:11:33;14.30;;;10.45;;
64029;SDS011;50277;52.064;4.492;2023-05-10T06:13:59;12.88;;;9.40;;
64029;SDS011;50277;52.064;4.492;2023-05-10T06:16:24;11.20;;;9.30;;
64029;SDS011;50277;52.064;4.492;2023-05-10T06:18:49;11.45;;;8.95;;
64029;SDS011;50277;52.064;4.492;2023-05-10T06:21:15;11.35;;;9.43;;
64029;SDS011;50277;52.064;4.492;2023-05-10T06:23:41;10.20;;;8.85;;
64029;SDS011;50277;52.064;4.492;2023-05-10T06:26:07;9.25;;;8.25;;
64029;SDS011;50277;52.064;4.492;2023-05-10T06:28:32;7.60;;;6.70;;
64029;SDS011;50277;52.064;4.492;2023-05-10T06:30:58;9.45;;;6.70;;
64029;SDS011;50277;52.064;4.492;2023-05-10T06:33:24;5.43;;;4.95;;
64029;SDS011;50277;52.064;4.492;2023-05-10T06:35:49;6.53;;;5.70;;
64029;SDS011;50277;52.064;4.492;2023-05-10T06:38:14;5.22;;;4.82;;
64029;SDS011;50277;52.064;4.492;2023-05-10T06:40:43;5.72;;;5.05;;
64029;SDS011;50277;52.064;4.492;2023-05-10T06:43:08;5.97;;;5.47;;
64029;SDS011;50277;52.064;4.492;2023-05-10T06:45:34;4.80;;;4.40;;
64029;SDS011;50277;52.064;4.492;2023-05-10T06:48:00;7.40;;;5.80;;
64029;SDS011;50277;52.064;4.492;2023-05-10T06:50:25;6.28;;;4.80;;
64029;SDS011;50277;52.064;4.492;2023-05-10T06:52:51;6.07;;;5.55;;
64029;SDS011;50277;52.064;4.492;2023-05-10T06:55:16;5.93;;;5.38;;
64029;SDS011;50277;52.064;4.492;2023-05-10T06:57:42;5.35;;;4.85;;
64029;SDS011;50277;52.064;4.492;2023-05-10T07:00:07;6.88;;;6.20;;
64029;SDS011;50277;52.064;4.492;2023-05-10T07:02:34;8.02;;;5.88;;
64029;SDS011;50277;52.064;4.492;2023-05-10T07:05:00;9.40;;;6.10;;
64029;SDS011;50277;52.064;4.492;2023-05-10T07:07:25;6.22;;;5.50;;
64029;SDS011;50277;52.064;4.492;2023-05-10T07:09:50;7.00;;;6.30;;
64029;SDS011;50277;52.064;4.492;2023-05-10T07:12:16;6.45;;;5.63;;
64029;SDS011;50277;52.064;4.492;2023-05-10T08:04:28;8.27;;;6.10;;
64029;SDS011;50277;52.064;4.492;2023-05-10T08:06:53;7.57;;;5.75;;
64029;SDS011;50277;52.064;4.492;2023-05-10T08:09:18;8.80;;;6.93;;
64029;SDS011;50277;52.064;4.492;2023-05-10T08:11:48;10.02;;;6.32;;
64029;SDS011;50277;52.064;4.492;2023-05-10T08:14:13;7.10;;;6.32;;
64029;SDS011;50277;52.064;4.492;2023-05-10T08:16:39;7.53;;;6.28;;
64029;SDS011;50277;52.064;4.492;2023-05-10T08:19:04;6.32;;;5.70;;
64029;SDS011;50277;52.064;4.492;2023-05-10T08:21:29;7.65;;;5.95;;
64029;SDS011;50277;52.064;4.492;2023-05-10T08:23:56;7.25;;;5.15;;
64029;SDS011;50277;52.064;4.492;2023-05-10T08:26:21;4.88;;;4.38;;
64029;SDS011;50277;52.064;4.492;2023-05-10T08:28:46;4.80;;;4.40;;
64029;SDS011;50277;52.064;4.492;2023-05-10T08:31:12;6.28;;;4.53;;
64029;SDS011;50277;52.064;4.492;2023-05-10T08:33:37;5.82;;;5.22;;
64029;SDS011;50277;52.064;4.492;2023-05-10T08:36:02;5.97;;;4.50;;
64029;SDS011;50277;52.064;4.492;2023-05-10T08:38:28;4.38;;;3.97;;
64029;SDS011;50277;52.064;4.492;2023-05-10T08:40:54;5.22;;;3.95;;
64029;SDS011;50277;52.064;4.492;2023-05-10T08:43:24;7.18;;;4.32;;
64029;SDS011;50277;52.064;4.492;2023-05-10T08:45:51;5.18;;;3.63;;
64029;SDS011;50277;52.064;4.492;2023-05-10T08:48:18;5.30;;;4.45;;
64029;SDS011;50277;52.064;4.492;2023-05-10T08:50:44;5.25;;;4.65;;
64029;SDS011;50277;52.064;4.492;2023-05-10T08:53:11;9.00;;;4.68;;
64029;SDS011;50277;52.064;4.492;2023-05-10T08:55:37;6.95;;;4.90;;
64029;SDS011;50277;52.064;4.492;2023-05-10T08:58:04;4.45;;;4.05;;
64029;SDS011;50277;52.064;4.492;2023-05-10T09:00:29;4.40;;;4.05;;
64029;SDS011;50277;52.064;4.492;2023-05-10T09:02:56;6.20;;;5.15;;
64029;SDS011;50277;52.064;4.492;2023-05-10T09:05:25;5.20;;;3.80;;
64029;SDS011;50277;52.064;4.492;2023-05-10T09:07:51;5.97;;;4.10;;
64029;SDS011;50277;52.064;4.492;2023-05-10T09:10:18;5.00;;;4.55;;
64029;SDS011;50277;52.064;4.492;2023-05-10T09:12:44;5.72;;;4.60;;
64029;SDS011;50277;52.064;4.492;2023-05-10T09:15:10;4.93;;;4.40;;
64029;SDS011;50277;52.064;4.492;2023-05-10T09:17:36;6.22;;;5.60;;
64029;SDS011;50277;52.064;4.492;2023-05-10T09:20:02;7.78;;;6.10;;
64029;SDS011;50277;52.064;4.492;2023-05-10T09:22:29;8.40;;;6.43;;
64029;SDS011;50277;52.064;4.492;2023-05-10T09:25:11;8.23;;;7.25;;
64029;SDS011;50277;52.064;4.492;2023-05-10T09:27:41;8.52;;;6.80;;
64029;SDS011;50277;52.064;4.492;2023-05-10T09:30:09;8.30;;;7.40;;
64029;SDS011;50277;52.064;4.492;2023-05-10T09:32:39;15.07;;;9.07;;
64029;SDS011;50277;52.064;4.492;2023-05-10T09:37:39;10.52;;;8.05;;
64029;SDS011;50277;52.064;4.492;2023-05-10T09:42:33;8.68;;;7.10;;
64029;SDS011;50277;52.064;4.492;2023-05-10T09:45:05;13.80;;;7.95;;
64029;SDS011;50277;52.064;4.492;2023-05-10T09:47:34;8.82;;;7.38;;
64029;SDS011;50277;52.064;4.492;2023-05-10T09:55:13;10.18;;;5.65;;
64029;SDS011;50277;52.064;4.492;2023-05-10T09:57:38;8.00;;;5.13;;
64029;SDS011;50277;52.064;4.492;2023-05-10T10:00:04;8.55;;;5.72;;
64029;SDS011;50277;52.064;4.492;2023-05-10T10:02:30;8.00;;;5.82;;
64029;SDS011;50277;52.064;4.492;2023-05-10T10:04:56;10.98;;;7.20;;
64029;SDS011;50277;52.064;4.492;2023-05-10T10:07:24;11.52;;;6.85;;
64029;SDS011;50277;52.064;4.492;2023-05-10T10:09:50;13.27;;;7.97;;
64029;SDS011;50277;52.064;4.492;2023-05-10T10:12:16;11.98;;;8.43;;
64029;SDS011;50277;52.064;4.492;2023-05-10T10:14:41;16.13;;;9.50;;
64029;SDS011;50277;52.064;4.492;2023-05-10T10:17:06;13.35;;;9.75;;
64029;SDS011;50277;52.064;4.492;2023-05-10T10:19:33;18.75;;;9.75;;
64029;SDS011;50277;52.064;4.492;2023-05-10T10:21:59;17.08;;;9.27;;
64029;SDS011;50277;52.064;4.492;2023-05-10T10:24:25;11.88;;;8.25;;
64029;SDS011;50277;52.064;4.492;2023-05-10T10:26:50;13.60;;;8.82;;
64029;SDS011;50277;52.064;4.492;2023-05-10T10:32:03;16.23;;;9.40;;
64029;SDS011;50277;52.064;4.492;2023-05-10T10:34:34;11.38;;;7.45;;
64029;SDS011;50277;52.064;4.492;2023-05-10T10:37:04;10.55;;;7.68;;
64029;SDS011;50277;52.064;4.492;2023-05-10T10:39:29;12.80;;;8.00;;
64029;SDS011;50277;52.064;4.492;2023-05-10T10:41:56;15.05;;;8.73;;
64029;SDS011;50277;52.064;4.492;2023-05-10T10:44:23;14.82;;;8.75;;
64029;SDS011;50277;52.064;4.492;2023-05-10T10:49:23;14.23;;;9.63;;
64029;SDS011;50277;52.064;4.492;2023-05-10T10:54:39;18.00;;;10.80;;
64029;SDS011;50277;52.064;4.492;2023-05-10T10:57:12;20.05;;;11.40;;
64029;SDS011;50277;52.064;4.492;2023-05-10T10:59:42;19.00;;;10.50;;
64029;SDS011;50277;52.064;4.492;2023-05-10T11:02:08;18.10;;;10.20;;
64029;SDS011;50277;52.064;4.492;2023-05-10T11:04:43;13.45;;;9.00;;
64029;SDS011;50277;52.064;4.492;2023-05-10T11:07:18;12.70;;;8.70;;
64029;SDS011;50277;52.064;4.492;2023-05-10T11:09:45;16.05;;;9.15;;
64029;SDS011;50277;52.064;4.492;2023-05-10T11:12:11;14.27;;;9.05;;
64029;SDS011;50277;52.064;4.492;2023-05-10T11:14:37;12.65;;;8.90;;
64029;SDS011;50277;52.064;4.492;2023-05-10T11:17:02;13.60;;;9.60;;
64029;SDS011;50277;52.064;4.492;2023-05-10T11:22:51;10.45;;;8.15;;
64029;SDS011;50277;52.064;4.492;2023-05-10T11:25:17;11.88;;;8.75;;
64029;SDS011;50277;52.064;4.492;2023-05-10T11:27:43;13.25;;;9.40;;
64029;SDS011;50277;52.064;4.492;2023-05-10T11:30:09;13.07;;;9.27;;
64029;SDS011;50277;52.064;4.492;2023-05-10T11:32:37;15.73;;;8.98;;
64029;SDS011;50277;52.064;4.492;2023-05-10T11:35:09;12.60;;;10.18;;
64029;SDS011;50277;52.064;4.492;2023-05-10T11:37:37;13.73;;;9.00;;
64029;SDS011;50277;52.064;4.492;2023-05-10T11:40:07;11.50;;;9.80;;
64029;SDS011;50277;52.064;4.492;2023-05-10T11:42:34;14.45;;;9.30;;
64029;SDS011;50277;52.064;4.492;2023-05-10T11:45:04;12.10;;;9.77;;
64029;SDS011;50277;52.064;4.492;2023-05-10T11:47:30;13.88;;;9.07;;
64029;SDS011;50277;52.064;4.492;2023-05-10T11:49:55;12.43;;;9.50;;
64029;SDS011;50277;52.064;4.492;2023-05-10T11:52:22;11.82;;;9.23;;
64029;SDS011;50277;52.064;4.492;2023-05-10T11:54:51;14.85;;;8.68;;
64029;SDS011;50277;52.064;4.492;2023-05-10T11:57:18;10.02;;;7.35;;
64029;SDS011;50277;52.064;4.492;2023-05-10T11:59:45;11.52;;;7.35;;
64029;SDS011;50277;52.064;4.492;2023-05-10T12:02:13;13.52;;;8.38;;
64029;SDS011;50277;52.064;4.492;2023-05-10T12:04:39;17.58;;;8.80;;
64029;SDS011;50277;52.064;4.492;2023-05-10T12:07:04;11.07;;;7.88;;
64029;SDS011;50277;52.064;4.492;2023-05-10T12:09:30;13.15;;;8.73;;
64029;SDS011;50277;52.064;4.492;2023-05-10T12:11:55;11.65;;;8.77;;
64029;SDS011;50277;52.064;4.492;2023-05-10T12:14:24;11.23;;;7.22;;
64029;SDS011;50277;52.064;4.492;2023-05-10T12:16:49;13.55;;;7.30;;
64029;SDS011;50277;52.064;4.492;2023-05-10T12:19:18;10.07;;;7.65;;
64029;SDS011;50277;52.064;4.492;2023-05-10T12:21:45;11.73;;;7.90;;
64029;SDS011;50277;52.064;4.492;2023-05-10T12:24:10;9.90;;;7.68;;
64029;SDS011;50277;52.064;4.492;2023-05-10T12:26:35;11.68;;;7.88;;
64029;SDS011;50277;52.064;4.492;2023-05-10T12:29:19;10.40;;;7.25;;
64029;SDS011;50277;52.064;4.492;2023-05-10T12:32:03;9.80;;;7.20;;
64029;SDS011;50277;52.064;4.492;2023-05-10T12:34:32;11.57;;;7.50;;
64029;SDS011;50277;52.064;4.492;2023-05-10T12:36:58;12.82;;;8.70;;
64029;SDS011;50277;52.064;4.492;2023-05-10T12:39:25;13.32;;;8.77;;
64029;SDS011;50277;52.064;4.492;2023-05-10T12:41:51;11.68;;;8.43;;
64029;SDS011;50277;52.064;4.492;2023-05-10T12:44:17;9.80;;;7.97;;
64029;SDS011;50277;52.064;4.492;2023-05-10T12:46:42;10.55;;;7.72;;
64029;SDS011;50277;52.064;4.492;2023-05-10T12:49:07;12.07;;;7.82;;
64029;SDS011;50277;52.064;4.492;2023-05-10T12:51:33;10.82;;;7.45;;
64029;SDS011;50277;52.064;4.492;2023-05-10T12:53:58;10.18;;;7.72;;
64029;SDS011;50277;52.064;4.492;2023-05-10T12:56:23;10.38;;;8.35;;
64029;SDS011;50277;52.064;4.492;2023-05-10T12:58:49;10.82;;;8.75;;
64029;SDS011;50277;52.064;4.492;2023-05-10T13:01:14;11.20;;;8.23;;
64029;SDS011;50277;52.064;4.492;2023-05-10T13:03:40;11.20;;;8.05;;
64029;SDS011;50277;52.064;4.492;2023-05-10T13:06:05;11.38;;;7.35;;
64029;SDS011;50277;52.064;4.492;2023-05-10T13:08:31;9.07;;;6.85;;
64029;SDS011;50277;52.064;4.492;2023-05-10T13:10:58;18.73;;;8.15;;
64029;SDS011;50277;52.064;4.492;2023-05-10T13:13:24;9.18;;;6.95;;
64029;SDS011;50277;52.064;4.492;2023-05-10T13:15:50;8.35;;;6.40;;
64029;SDS011;50277;52.064;4.492;2023-05-10T13:18:15;7.95;;;5.68;;
64029;SDS011;50277;52.064;4.492;2023-05-10T13:20:40;9.80;;;6.60;;
64029;SDS011;50277;52.064;4.492;2023-05-10T13:23:07;8.13;;;5.57;;
64029;SDS011;50277;52.064;4.492;2023-05-10T13:25:33;8.38;;;6.25;;
64029;SDS011;50277;52.064;4.492;2023-05-10T13:27:59;8.13;;;6.38;;
64029;SDS011;50277;52.064;4.492;2023-05-10T13:30:24;7.47;;;5.22;;
64029;SDS011;50277;52.064;4.492;2023-05-10T13:32:50;8.10;;;5.05;;
64029;SDS011;50277;52.064;4.492;2023-05-10T13:35:15;4.68;;;4.18;;
64029;SDS011;50277;52.064;4.492;2023-05-10T13:37:41;6.80;;;4.32;;
64029;SDS011;50277;52.064;4.492;2023-05-10T13:40:06;5.53;;;4.40;;
64029;SDS011;50277;52.064;4.492;2023-05-10T13:42:32;5.15;;;4.07;;
64029;SDS011;50277;52.064;4.492;2023-05-10T13:44:58;6.97;;;5.28;;
64029;SDS011;50277;52.064;4.492;2023-05-10T13:47:25;4.43;;;4.00;;
64029;SDS011;50277;52.064;4.492;2023-05-10T13:49:50;5.95;;;4.20;;
64029;SDS011;50277;52.064;4.492;2023-05-10T13:52:16;3.90;;;3.60;;
64029;SDS011;50277;52.064;4.492;2023-05-10T13:54:41;3.85;;;3.50;;
64029;SDS011;50277;52.064;4.492;2023-05-10T13:57:06;5.30;;;3.50;;
64029;SDS011;50277;52.064;4.492;2023-05-10T13:59:32;3.58;;;3.20;;
64029;SDS011;50277;52.064;4.492;2023-05-10T14:01:57;4.38;;;3.97;;
64029;SDS011;50277;52.064;4.492;2023-05-10T14:04:23;5.20;;;3.67;;
64029;SDS011;50277;52.064;4.492;2023-05-10T14:06:49;3.53;;;3.20;;
64029;SDS011;50277;52.064;4.492;2023-05-10T14:09:14;3.75;;;3.45;;
64029;SDS011;50277;52.064;4.492;2023-05-10T14:11:39;4.32;;;3.80;;
64029;SDS011;50277;52.064;4.492;2023-05-10T14:14:08;8.13;;;3.95;;
64029;SDS011;50277;52.064;4.492;2023-05-10T14:16:34;4.78;;;3.90;;
64029;SDS011;50277;52.064;4.492;2023-05-10T14:19:00;4.47;;;3.80;;
64029;SDS011;50277;52.064;4.492;2023-05-10T14:21:25;4.35;;;3.95;;
64029;SDS011;50277;52.064;4.492;2023-05-10T14:23:50;5.97;;;4.18;;
64029;SDS011;50277;52.064;4.492;2023-05-10T14:26:16;3.83;;;3.40;;
64029;SDS011;50277;52.064;4.492;2023-05-10T14:28:41;4.18;;;3.55;;
64029;SDS011;50277;52.064;4.492;2023-05-10T14:31:06;4.32;;;3.92;;
64029;SDS011;50277;52.064;4.492;2023-05-10T14:33:32;4.65;;;3.97;;
64029;SDS011;50277;52.064;4.492;2023-05-10T14:35:57;4.97;;;4.53;;
64029;SDS011;50277;52.064;4.492;2023-05-10T14:38:23;7.82;;;4.88;;
64029;SDS011;50277;52.064;4.492;2023-05-10T14:40:48;4.50;;;4.00;;
64029;SDS011;50277;52.064;4.492;2023-05-10T14:43:14;6.20;;;4.40;;
64029;SDS011;50277;52.064;4.492;2023-05-10T14:45:39;3.90;;;3.50;;
64029;SDS011;50277;52.064;4.492;2023-05-10T14:48:05;5.28;;;4.18;;
64029;SDS011;50277;52.064;4.492;2023-05-10T14:50:30;5.22;;;4.72;;
64029;SDS011;50277;52.064;4.492;2023-05-10T14:52:56;5.00;;;4.50;;
64029;SDS011;50277;52.064;4.492;2023-05-10T14:55:22;5.43;;;4.90;;
64029;SDS011;50277;52.064;4.492;2023-05-10T14:57:48;4.70;;;4.28;;
64029;SDS011;50277;52.064;4.492;2023-05-10T15:00:15;4.75;;;4.20;;
64029;SDS011;50277;52.064;4.492;2023-05-10T15:02:40;6.50;;;4.75;;
64029;SDS011;50277;52.064;4.492;2023-05-10T15:05:06;4.30;;;3.70;;
64029;SDS011;50277;52.064;4.492;2023-05-10T15:07:32;3.85;;;3.55;;
64029;SDS011;50277;52.064;4.492;2023-05-10T15:09:57;4.63;;;3.85;;
64029;SDS011;50277;52.064;4.492;2023-05-10T15:12:22;3.97;;;3.67;;
64029;SDS011;50277;52.064;4.492;2023-05-10T15:14:48;3.72;;;3.42;;
64029;SDS011;50277;52.064;4.492;2023-05-10T15:17:13;3.60;;;3.40;;
64029;SDS011;50277;52.064;4.492;2023-05-10T15:19:38;5.00;;;4.15;;
64029;SDS011;50277;52.064;4.492;2023-05-10T15:22:04;5.00;;;4.22;;
64029;SDS011;50277;52.064;4.492;2023-05-10T15:24:30;4.65;;;3.92;;
64029;SDS011;50277;52.064;4.492;2023-05-10T15:26:55;4.78;;;3.60;;
64029;SDS011;50277;52.064;4.492;2023-05-10T15:29:21;4.32;;;3.92;;
64029;SDS011;50277;52.064;4.492;2023-05-10T15:31:46;5.25;;;4.10;;
64029;SDS011;50277;52.064;4.492;2023-05-10T15:34:13;5.20;;;4.80;;
64029;SDS011;50277;52.064;4.492;2023-05-10T15:36:38;5.28;;;4.78;;
64029;SDS011;50277;52.064;4.492;2023-05-10T15:39:04;5.18;;;4.57;;
64029;SDS011;50277;52.064;4.492;2023-05-10T15:41:29;5.43;;;4.93;;
64029;SDS011;50277;52.064;4.492;2023-05-10T15:43:55;7.30;;;4.70;;
64029;SDS011;50277;52.064;4.492;2023-05-10T15:46:20;4.63;;;4.22;;
64029;SDS011;50277;52.064;4.492;2023-05-10T15:48:46;4.93;;;4.45;;
64029;SDS011;50277;52.064;4.492;2023-05-10T15:51:11;4.78;;;4.38;;